KHOT

Memorial Field Airport

Hot Springs, Arkansas, USA
METAR KHOT 180653Z AUTO 00000KT 1/4SM FG VV001 03/03 A3024 RMK AO2 SLP240 T00280028 $
Observed Flight Rules
Feb-18 @ 06:53 UTC (22 minutes ago) Instrument Flight Rules
Wind Visibility Clouds Conditions
Calm 1/4 miles
  • Vertical visibility at 100' AGL
  • Fog
Temperatures Readings
Current 3°C / 37°F
Dewpoint 3°C / 37°F
Humidity 100%
Altimeter 30.24" Hg
Pressure 1024 hPa
Elevation 162
METAR KHOT 180653Z AUTO 00000KT 1/4SM FG VV001 03/03 A3024 RMK AO2 SLP240 T00280028 $
Observed Flight Rules
Feb-18 @ 06:53 UTC
(22 minutes ago)
LIFR
Wind Visibility
Calm 1/4 miles
Clouds
  • Vertical visibility at 100' AGL
Conditions
  • Fog
Temperature Dewpoint
3°C / 37°F 3°C / 37°F
Humidity Altimeter Pressure
100% 30.24" Hg 1024 hPa